Time;durP1;ratioP1;P1;durP2;ratioP2;P2;SDS_P1;SDS_P2;PMS_P1;PMS_P2;Temp;Humidity;BMP_temperature;BMP_pressure;BME280_temperature;BME280_humidity;BME280_pressure;Samples;Min_cycle;Max_cycle;Signal;HPM_P1;HPM_P2
2022/03/09 00:02:11;;;;;;;8.60;3.78;;;;;;;;;;5043184;28;20068;-56
2022/03/09 00:04:41;;;;;;;10.52;3.85;;;;;;;;;;5048646;28;20056;-62
2022/03/09 00:07:09;;;;;;;7.75;3.58;;;;;;;;;;5043363;28;20045;-62
2022/03/09 00:09:35;;;;;;;12.45;4.78;;;;;;;;;;5049783;28;20142;-58
2022/03/09 00:12:03;;;;;;;11.38;4.57;;;;;;;;;;5036410;28;20151;-57
2022/03/09 00:14:30;;;;;;;11.07;3.78;;;;;;;;;;5049271;28;20076;-62
2022/03/09 00:16:59;;;;;;;10.77;4.10;;;;;;;;;;5045583;28;20160;-55
2022/03/09 00:19:26;;;;;;;12.07;4.95;;;;;;;;;;5050802;28;20037;-62
2022/03/09 00:21:57;;;;;;;9.73;3.90;;;;;;;;;;5035304;28;20048;-63
2022/03/09 00:24:28;;;;;;;11.65;3.85;;;;;;;;;;5042327;28;20048;-61
2022/03/09 00:26:54;;;;;;;9.48;4.25;;;;;;;;;;5034756;28;20052;-63
2022/03/09 00:29:21;;;;;;;10.20;4.25;;;;;;;;;;5048767;28;20068;-56
2022/03/09 00:31:47;;;;;;;13.52;4.28;;;;;;;;;;5048369;28;20076;-58
2022/03/09 00:34:15;;;;;;;12.00;4.18;;;;;;;;;;5042120;28;20135;-62
2022/03/09 00:36:45;;;;;;;7.57;3.65;;;;;;;;;;5064941;28;20095;-58
2022/03/09 00:39:11;;;;;;;9.90;4.25;;;;;;;;;;5042376;28;20052;-58
2022/03/09 00:41:40;;;;;;;10.80;4.65;;;;;;;;;;5046619;28;20059;-58
2022/03/09 00:44:10;;;;;;;9.38;4.22;;;;;;;;;;5033080;28;20056;-59
2022/03/09 00:46:36;;;;;;;12.10;4.53;;;;;;;;;;5045774;28;20064;-54
2022/03/09 00:49:06;;;;;;;10.60;4.13;;;;;;;;;;5057215;28;20045;-61
2022/03/09 00:51:33;;;;;;;9.77;4.30;;;;;;;;;;5046308;28;20049;-59
2022/03/09 00:54:00;;;;;;;10.93;4.20;;;;;;;;;;5039756;28;20053;-62
2022/03/09 00:56:26;;;;;;;10.55;4.30;;;;;;;;;;5046647;28;20048;-62
2022/03/09 00:58:54;;;;;;;12.82;4.40;;;;;;;;;;5041046;28;20138;-61
2022/03/09 01:01:21;;;;;;;10.33;4.10;;;;;;;;;;5047046;28;20068;-61
2022/03/09 01:03:47;;;;;;;9.82;4.28;;;;;;;;;;5041195;28;20153;-59
2022/03/09 01:06:17;;;;;;;9.18;3.72;;;;;;;;;;5047058;28;20110;-61
2022/03/09 01:08:50;;;;;;;8.60;3.70;;;;;;;;;;5043098;28;20057;-62
2022/03/09 01:11:17;;;;;;;9.10;3.63;;;;;;;;;;5047441;28;20076;-60
2022/03/09 01:13:43;;;;;;;10.68;3.60;;;;;;;;;;5041937;28;20068;-59
2022/03/09 01:16:12;;;;;;;11.57;4.30;;;;;;;;;;5047018;28;20053;-58
2022/03/09 01:18:39;;;;;;;;;;;;;;;;;;5047453;28;20056;-56
2022/03/09 01:21:06;;;;;;;15.48;4.18;;;;;;;;;;5042721;28;20026;-62
2022/03/09 01:23:32;;;;;;;7.28;3.17;;;;;;;;;;5046378;28;20054;-56
2022/03/09 01:25:59;;;;;;;12.10;3.78;;;;;;;;;;5040464;28;20052;-54
2022/03/09 01:28:25;;;;;;;8.90;4.07;;;;;;;;;;5046821;28;20060;-54
2022/03/09 01:30:54;;;;;;;10.85;4.22;;;;;;;;;;5040818;28;20139;-59
2022/03/09 01:33:23;;;;;;;8.75;4.05;;;;;;;;;;5046672;28;20059;-59
2022/03/09 01:35:53;;;;;;;10.20;4.22;;;;;;;;;;5041116;28;20060;-55
2022/03/09 01:38:19;;;;;;;10.73;4.55;;;;;;;;;;5039778;28;20044;-56
2022/03/09 01:40:46;;;;;;;10.73;3.83;;;;;;;;;;5041938;28;20044;-54
2022/03/09 01:43:15;;;;;;;9.55;3.83;;;;;;;;;;5047264;28;20049;-55
2022/03/09 01:45:42;;;;;;;11.95;4.35;;;;;;;;;;5042062;28;20079;-53
2022/03/09 01:48:09;;;;;;;10.02;4.07;;;;;;;;;;5046548;28;20143;-51
2022/03/09 01:50:37;;;;;;;9.50;3.95;;;;;;;;;;5041068;28;20150;-52
2022/03/09 01:53:04;;;;;;;11.43;4.13;;;;;;;;;;5047088;28;20060;-56
2022/03/09 01:55:30;;;;;;;8.70;3.80;;;;;;;;;;5041418;28;20382;-53
2022/03/09 01:57:57;;;;;;;13.93;4.40;;;;;;;;;;5046770;28;20056;-55
2022/03/09 02:00:27;;;;;;;7.22;3.15;;;;;;;;;;5041367;28;20076;-56
2022/03/09 02:02:53;;;;;;;9.10;3.45;;;;;;;;;;5047521;28;20052;-53
2022/03/09 02:05:20;;;;;;;9.27;4.05;;;;;;;;;;5046705;28;20115;-55
2022/03/09 02:10:38;;;;;;;13.80;4.22;;;;;;;;;;5046246;28;20053;-59
2022/03/09 02:13:04;;;;;;;9.77;4.03;;;;;;;;;;5041236;28;20113;-52
2022/03/09 02:15:31;;;;;;;9.98;4.03;;;;;;;;;;5046022;28;20080;-57
2022/03/09 02:17:59;;;;;;;9.77;3.92;;;;;;;;;;5032446;28;20053;-54
2022/03/09 02:20:26;;;;;;;11.60;4.50;;;;;;;;;;5046477;28;20064;-54
2022/03/09 02:22:54;;;;;;;10.57;4.15;;;;;;;;;;5040894;28;20061;-53
2022/03/09 02:25:22;;;;;;;15.00;4.13;;;;;;;;;;5046679;28;20068;-56
2022/03/09 02:27:49;;;;;;;14.63;4.50;;;;;;;;;;5029650;28;20214;-63
2022/03/09 02:30:16;;;;;;;12.43;4.28;;;;;;;;;;5026498;28;20331;-61
2022/03/09 02:32:43;;;;;;;10.43;3.85;;;;;;;;;;5027308;28;20086;-61
2022/03/09 02:35:12;;;;;;;11.65;4.32;;;;;;;;;;5028147;28;20072;-58
2022/03/09 02:37:38;;;;;;;8.30;3.30;;;;;;;;;;5023987;28;20057;-62
2022/03/09 02:40:08;;;;;;;9.30;3.65;;;;;;;;;;5030914;28;20049;-58
2022/03/09 02:42:34;;;;;;;9.38;3.38;;;;;;;;;;5040249;28;20076;-57
2022/03/09 02:45:01;;;;;;;11.10;4.45;;;;;;;;;;5045957;28;20092;-62
2022/03/09 02:47:28;;;;;;;10.68;3.95;;;;;;;;;;5040437;28;20064;-58
2022/03/09 02:49:54;;;;;;;9.68;4.40;;;;;;;;;;5046141;28;20061;-60
2022/03/09 02:52:21;;;;;;;9.40;3.97;;;;;;;;;;5043455;28;20118;-60
2022/03/09 02:54:48;;;;;;;13.00;5.03;;;;;;;;;;5044527;28;20072;-53
2022/03/09 02:57:16;;;;;;;11.63;4.20;;;;;;;;;;5046094;28;20045;-55
2022/03/09 02:59:43;;;;;;;11.65;3.95;;;;;;;;;;5039872;28;20110;-58
2022/03/09 03:02:09;;;;;;;10.90;4.13;;;;;;;;;;5029351;28;20111;-63
2022/03/09 03:04:39;;;;;;;9.40;4.18;;;;;;;;;;5027962;28;20139;-62
2022/03/09 03:07:06;;;;;;;7.80;3.40;;;;;;;;;;5044976;28;20053;-62
2022/03/09 03:09:33;;;;;;;10.48;3.90;;;;;;;;;;5040169;28;20049;-56
2022/03/09 03:11:59;;;;;;;11.07;4.63;;;;;;;;;;5045685;28;20053;-57
2022/03/09 03:14:27;;;;;;;8.25;3.65;;;;;;;;;;5040002;28;20057;-60
2022/03/09 03:16:54;;;;;;;12.75;3.92;;;;;;;;;;5045733;28;20056;-62
2022/03/09 03:19:21;;;;;;;14.10;4.60;;;;;;;;;;5044054;28;20064;-59
2022/03/09 03:21:49;;;;;;;9.35;4.05;;;;;;;;;;5048578;28;20057;-57
2022/03/09 03:24:16;;;;;;;9.80;3.67;;;;;;;;;;5043507;28;20064;-61
2022/03/09 03:26:42;;;;;;;9.73;4.13;;;;;;;;;;5048619;28;20106;-56
2022/03/09 03:29:09;;;;;;;15.65;4.60;;;;;;;;;;5043618;28;20194;-62
2022/03/09 03:31:37;;;;;;;9.27;4.00;;;;;;;;;;5049836;28;20052;-60
2022/03/09 03:34:03;;;;;;;14.13;3.97;;;;;;;;;;5042421;28;20072;-59
2022/03/09 03:36:30;;;;;;;12.48;4.40;;;;;;;;;;5049028;28;20087;-60
2022/03/09 03:38:57;;;;;;;10.13;3.78;;;;;;;;;;5048816;28;20041;-60
2022/03/09 03:41:23;;;;;;;10.20;3.92;;;;;;;;;;5043408;28;20056;-62
2022/03/09 03:43:50;;;;;;;10.77;4.13;;;;;;;;;;5049238;28;20056;-59
2022/03/09 03:46:17;;;;;;;12.45;4.55;;;;;;;;;;5043854;28;20095;-61
2022/03/09 03:48:45;;;;;;;9.18;3.75;;;;;;;;;;5050986;28;20056;-60
2022/03/09 03:51:11;;;;;;;7.63;3.50;;;;;;;;;;5044090;28;20107;-57
2022/03/09 03:53:38;;;;;;;8.85;3.88;;;;;;;;;;5048446;28;20322;-59
2022/03/09 03:56:06;;;;;;;9.93;3.70;;;;;;;;;;5036351;28;20063;-62
2022/03/09 03:58:34;;;;;;;9.93;4.00;;;;;;;;;;5049191;28;20051;-59
2022/03/09 04:01:01;;;;;;;13.27;4.03;;;;;;;;;;5043554;28;20044;-60
2022/03/09 04:03:32;;;;;;;11.27;4.47;;;;;;;;;;5050593;28;20045;-60
2022/03/09 04:06:02;;;;;;;9.00;4.00;;;;;;;;;;5045799;28;20045;-62
2022/03/09 04:08:29;;;;;;;11.57;3.60;;;;;;;;;;5049509;28;20095;-55
2022/03/09 04:10:55;;;;;;;12.13;3.78;;;;;;;;;;5043043;28;20087;-58
2022/03/09 04:13:23;;;;;;;10.32;3.97;;;;;;;;;;5048237;28;20052;-58
2022/03/09 04:15:50;;;;;;;10.17;3.93;;;;;;;;;;5042511;28;20045;-58
2022/03/09 04:18:16;;;;;;;10.88;4.13;;;;;;;;;;5048514;28;20299;-58
2022/03/09 04:20:43;;;;;;;9.90;3.70;;;;;;;;;;5048296;28;20083;-63
2022/03/09 04:23:12;;;;;;;6.97;3.10;;;;;;;;;;5042289;28;20053;-54
2022/03/09 04:25:39;;;;;;;8.80;3.42;;;;;;;;;;5045582;28;20082;-63
2022/03/09 04:28:05;;;;;;;11.52;4.03;;;;;;;;;;5042859;28;20049;-62
2022/03/09 04:30:32;;;;;;;10.20;4.15;;;;;;;;;;5048801;28;20080;-61
2022/03/09 04:32:59;;;;;;;10.40;3.88;;;;;;;;;;5042082;28;20076;-62
2022/03/09 04:35:27;;;;;;;12.70;4.13;;;;;;;;;;5064352;28;20057;-60
2022/03/09 04:37:53;;;;;;;12.05;3.92;;;;;;;;;;5058630;28;20064;-61
2022/03/09 04:40:21;;;;;;;13.20;4.18;;;;;;;;;;5048586;28;20057;-60
2022/03/09 04:42:48;;;;;;;14.82;4.90;;;;;;;;;;5042394;28;20056;-56
2022/03/09 04:45:17;;;;;;;8.27;3.60;;;;;;;;;;5047621;28;20078;-65
2022/03/09 04:47:44;;;;;;;15.20;4.47;;;;;;;;;;5042004;28;20063;-56
2022/03/09 04:50:11;;;;;;;9.70;3.72;;;;;;;;;;5047376;28;20056;-60
2022/03/09 04:52:37;;;;;;;9.32;4.18;;;;;;;;;;5041416;28;20053;-61
2022/03/09 04:55:05;;;;;;;13.57;4.20;;;;;;;;;;5047487;28;20053;-62
2022/03/09 04:57:34;;;;;;;9.38;3.40;;;;;;;;;;5043285;28;20176;-63
2022/03/09 05:00:00;;;;;;;8.68;3.35;;;;;;;;;;5048345;28;20135;-62
2022/03/09 05:02:27;;;;;;;11.07;3.65;;;;;;;;;;5027969;28;20073;-61
2022/03/09 05:04:54;;;;;;;8.52;3.17;;;;;;;;;;5027526;28;20083;-62
2022/03/09 05:07:20;;;;;;;6.25;2.65;;;;;;;;;;5027464;28;20049;-63
2022/03/09 05:09:47;;;;;;;7.30;2.72;;;;;;;;;;5040590;28;20056;-58
2022/03/09 05:12:13;;;;;;;11.23;3.53;;;;;;;;;;5047484;28;20067;-57
2022/03/09 05:14:41;;;;;;;8.88;3.80;;;;;;;;;;5041769;28;20053;-62
2022/03/09 05:17:08;;;;;;;10.35;3.55;;;;;;;;;;5047238;28;20064;-63
2022/03/09 05:19:36;;;;;;;8.10;3.05;;;;;;;;;;5041567;28;20094;-63
2022/03/09 05:22:03;;;;;;;8.68;3.10;;;;;;;;;;5047239;28;20187;-63
2022/03/09 05:24:31;;;;;;;7.68;3.13;;;;;;;;;;5041675;28;20102;-60
2022/03/09 05:26:57;;;;;;;8.82;3.50;;;;;;;;;;5047409;28;20056;-63
2022/03/09 05:29:23;;;;;;;7.85;3.45;;;;;;;;;;5042287;28;20053;-62
2022/03/09 05:31:51;;;;;;;9.68;3.83;;;;;;;;;;5048330;28;20056;-59
2022/03/09 05:34:27;;;;;;;8.27;3.13;;;;;;;;;;5043144;28;20049;-59
2022/03/09 05:36:54;;;;;;;11.02;3.63;;;;;;;;;;5049023;28;20330;-57
2022/03/09 05:39:20;;;;;;;7.75;3.33;;;;;;;;;;5041395;28;20060;-63
2022/03/09 05:41:48;;;;;;;11.45;3.67;;;;;;;;;;5046814;28;20057;-59
2022/03/09 05:44:15;;;;;;;11.82;3.33;;;;;;;;;;5040884;28;20060;-59
2022/03/09 05:46:41;;;;;;;6.07;2.75;;;;;;;;;;5048283;28;20084;-58
2022/03/09 05:49:09;;;;;;;8.38;3.30;;;;;;;;;;5046919;28;20083;-62
2022/03/09 05:51:36;;;;;;;7.50;3.05;;;;;;;;;;5040430;28;20056;-54
2022/03/09 05:54:02;;;;;;;8.15;3.10;;;;;;;;;;5046345;28;20156;-57
2022/03/09 05:56:29;;;;;;;9.57;3.47;;;;;;;;;;5040404;28;20053;-59
2022/03/09 05:58:55;;;;;;;8.13;3.20;;;;;;;;;;5046490;28;20128;-55
2022/03/09 06:01:23;;;;;;;10.30;3.72;;;;;;;;;;5039097;28;20060;-57
2022/03/09 06:03:50;;;;;;;9.23;3.08;;;;;;;;;;5048078;28;20055;-57
2022/03/09 06:06:18;;;;;;;13.85;4.00;;;;;;;;;;5042744;28;20052;-57
2022/03/09 06:08:46;;;;;;;8.10;3.67;;;;;;;;;;5049327;28;20091;-62
2022/03/09 06:11:12;;;;;;;9.52;3.70;;;;;;;;;;5057936;28;20048;-59
2022/03/09 06:13:39;;;;;;;13.13;3.85;;;;;;;;;;5048096;28;20098;-54
2022/03/09 06:16:08;;;;;;;10.75;3.45;;;;;;;;;;5040658;28;20060;-55
2022/03/09 06:18:35;;;;;;;8.43;3.13;;;;;;;;;;5046909;28;20052;-56
2022/03/09 06:21:01;;;;;;;9.98;3.75;;;;;;;;;;5042037;28;20053;-58
2022/03/09 06:23:30;;;;;;;10.30;3.92;;;;;;;;;;5046682;28;20140;-57
2022/03/09 06:25:56;;;;;;;11.25;3.78;;;;;;;;;;5040431;28;20053;-52
2022/03/09 06:28:23;;;;;;;9.20;3.53;;;;;;;;;;5047765;28;20102;-55
2022/03/09 06:30:50;;;;;;;7.07;3.15;;;;;;;;;;5045442;28;20064;-62
2022/03/09 06:33:17;;;;;;;10.05;3.53;;;;;;;;;;5062816;28;20114;-52
2022/03/09 06:35:44;;;;;;;9.52;3.63;;;;;;;;;;5048693;28;20083;-60
2022/03/09 06:38:10;;;;;;;9.07;3.88;;;;;;;;;;5040335;28;20060;-56
2022/03/09 06:40:38;;;;;;;9.85;3.97;;;;;;;;;;5065488;28;20051;-57
2022/03/09 06:43:06;;;;;;;10.10;3.85;;;;;;;;;;5036341;28;20049;-56
2022/03/09 06:45:33;;;;;;;13.07;3.50;;;;;;;;;;5046149;28;20045;-51
2022/03/09 06:47:59;;;;;;;9.55;3.55;;;;;;;;;;5019891;28;20056;-57
2022/03/09 06:50:29;;;;;;;11.73;3.85;;;;;;;;;;5045489;28;20067;-54
2022/03/09 06:52:56;;;;;;;9.68;4.07;;;;;;;;;;5042841;28;20128;-53
2022/03/09 06:55:25;;;;;;;9.57;3.70;;;;;;;;;;5050551;28;20060;-60
2022/03/09 06:57:53;;;;;;;12.45;3.70;;;;;;;;;;5045055;28;20045;-56
2022/03/09 07:00:20;;;;;;;12.68;3.88;;;;;;;;;;5051520;28;20074;-56
2022/03/09 07:02:47;;;;;;;9.32;4.20;;;;;;;;;;5046090;28;20041;-60
2022/03/09 07:05:14;;;;;;;12.88;4.00;;;;;;;;;;5052162;28;20049;-62
2022/03/09 07:07:41;;;;;;;13.35;4.32;;;;;;;;;;5044595;28;20061;-62
2022/03/09 07:10:11;;;;;;;7.63;3.00;;;;;;;;;;5049664;28;20057;-57
2022/03/09 07:12:38;;;;;;;8.82;3.65;;;;;;;;;;5044615;28;20114;-53
2022/03/09 07:15:06;;;;;;;7.78;3.47;;;;;;;;;;5049711;28;20063;-61
2022/03/09 07:17:33;;;;;;;;;;;;;;;;;;5049834;28;20053;-59
2022/03/09 07:19:59;;;;;;;9.95;3.05;;;;;;;;;;5044494;28;19927;-50
2022/03/09 07:22:26;;;;;;;11.00;3.95;;;;;;;;;;5040925;28;20052;-57
2022/03/09 07:24:54;;;;;;;9.15;3.33;;;;;;;;;;5044232;28;20049;-58
2022/03/09 07:27:21;;;;;;;9.10;3.17;;;;;;;;;;5049119;28;20071;-54
2022/03/09 07:29:47;;;;;;;9.95;3.53;;;;;;;;;;5043335;28;20053;-55
2022/03/09 07:32:15;;;;;;;7.72;3.20;;;;;;;;;;5049018;28;20052;-58
2022/03/09 07:34:42;;;;;;;12.88;3.28;;;;;;;;;;5043555;28;20136;-55
2022/03/09 07:37:09;;;;;;;9.45;3.58;;;;;;;;;;5042660;28;20141;-53
2022/03/09 07:39:38;;;;;;;8.77;3.75;;;;;;;;;;5042741;28;20057;-55
2022/03/09 07:42:05;;;;;;;9.00;3.38;;;;;;;;;;5048486;28;20053;-58
2022/03/09 07:44:32;;;;;;;8.00;3.42;;;;;;;;;;5043864;28;20059;-53
2022/03/09 07:46:59;;;;;;;9.07;2.90;;;;;;;;;;5048451;28;20053;-54
2022/03/09 07:49:27;;;;;;;11.73;3.67;;;;;;;;;;5043012;28;20072;-60
2022/03/09 07:51:54;;;;;;;8.68;3.25;;;;;;;;;;5048497;28;20052;-58
2022/03/09 07:54:22;;;;;;;7.82;3.05;;;;;;;;;;5026236;28;20056;-56
2022/03/09 07:56:49;;;;;;;8.88;3.20;;;;;;;;;;5041316;28;20056;-53
2022/03/09 07:59:16;;;;;;;7.97;2.90;;;;;;;;;;5048402;28;20049;-61
2022/03/09 08:01:43;;;;;;;8.05;3.53;;;;;;;;;;5062699;28;20045;-58
2022/03/09 08:04:10;;;;;;;7.78;2.40;;;;;;;;;;5047891;28;20060;-60
2022/03/09 08:06:38;;;;;;;8.63;3.67;;;;;;;;;;5040770;28;20052;-55
2022/03/09 08:09:05;;;;;;;7.40;3.00;;;;;;;;;;5048581;28;20118;-56
2022/03/09 08:11:31;;;;;;;8.10;3.05;;;;;;;;;;5043470;28;20106;-56
2022/03/09 08:13:58;;;;;;;7.55;2.65;;;;;;;;;;5048683;28;20072;-55
2022/03/09 08:16:25;;;;;;;9.63;3.50;;;;;;;;;;5042862;28;20052;-52
2022/03/09 08:18:51;;;;;;;9.18;3.05;;;;;;;;;;5048400;28;20140;-56
2022/03/09 08:21:18;;;;;;;9.90;3.47;;;;;;;;;;5042690;28;20142;-53
2022/03/09 08:23:46;;;;;;;8.32;3.30;;;;;;;;;;5048727;28;20083;-56
2022/03/09 08:26:13;;;;;;;12.85;3.25;;;;;;;;;;5044417;28;20052;-55
2022/03/09 08:28:40;;;;;;;9.50;3.75;;;;;;;;;;5051113;28;20064;-54
2022/03/09 08:31:07;;;;;;;10.10;3.45;;;;;;;;;;5046055;28;20049;-63
2022/03/09 08:33:35;;;;;;;11.68;3.33;;;;;;;;;;5049671;28;20103;-54
2022/03/09 08:36:02;;;;;;;10.93;3.78;;;;;;;;;;5041829;28;20107;-59
2022/03/09 08:38:28;;;;;;;14.98;4.25;;;;;;;;;;5041974;28;20072;-58
2022/03/09 08:40:57;;;;;;;10.32;3.60;;;;;;;;;;5044185;28;20049;-62
2022/03/09 08:43:28;;;;;;;14.73;5.32;;;;;;;;;;5047634;28;20053;-61
2022/03/09 08:45:55;;;;;;;13.40;4.93;;;;;;;;;;5048745;28;20068;-60
2022/03/09 08:48:21;;;;;;;12.23;4.32;;;;;;;;;;5042783;28;20103;-60
2022/03/09 08:50:48;;;;;;;10.02;3.70;;;;;;;;;;5048550;28;20060;-51
2022/03/09 08:53:16;;;;;;;11.32;4.28;;;;;;;;;;5042658;28;20178;-54
2022/03/09 08:55:43;;;;;;;9.77;3.67;;;;;;;;;;5048246;28;20131;-55
2022/03/09 08:58:10;;;;;;;8.30;3.72;;;;;;;;;;5042267;28;20380;-58
2022/03/09 09:00:37;;;;;;;6.17;2.73;;;;;;;;;;5047860;28;20076;-61
2022/03/09 09:03:04;;;;;;;8.40;3.42;;;;;;;;;;5035277;28;20103;-61
2022/03/09 09:05:30;;;;;;;13.52;4.07;;;;;;;;;;5047886;28;20063;-62
2022/03/09 09:07:57;;;;;;;14.35;4.93;;;;;;;;;;5034281;28;20052;-58
2022/03/09 09:10:26;;;;;;;10.00;3.80;;;;;;;;;;5026908;28;20049;-59
2022/03/09 09:12:54;;;;;;;14.75;4.05;;;;;;;;;;5028635;28;20075;-59
2022/03/09 09:15:24;;;;;;;9.95;3.72;;;;;;;;;;5046394;28;20044;-57
2022/03/09 09:17:56;;;;;;;14.50;5.05;;;;;;;;;;5040277;28;20064;-54
2022/03/09 09:20:25;;;;;;;12.50;4.35;;;;;;;;;;5047524;28;20048;-58
2022/03/09 09:22:52;;;;;;;7.88;3.45;;;;;;;;;;5032896;28;20059;-57
2022/03/09 09:25:19;;;;;;;10.60;4.00;;;;;;;;;;5046556;28;20114;-54
2022/03/09 09:27:45;;;;;;;11.52;3.83;;;;;;;;;;5042467;28;20044;-52
2022/03/09 09:30:12;;;;;;;10.50;4.10;;;;;;;;;;5045574;28;20108;-57
2022/03/09 09:32:40;;;;;;;13.15;4.53;;;;;;;;;;5035360;28;20141;-58
2022/03/09 09:35:07;;;;;;;12.17;3.20;;;;;;;;;;5039674;28;20060;-52
2022/03/09 09:37:34;;;;;;;15.75;4.18;;;;;;;;;;5039563;28;20305;-53
2022/03/09 09:40:01;;;;;;;8.48;3.67;;;;;;;;;;5040983;28;20080;-50
2022/03/09 09:42:31;;;;;;;9.30;3.88;;;;;;;;;;5046330;28;20056;-59
2022/03/09 09:45:00;;;;;;;13.23;4.18;;;;;;;;;;5040870;28;20049;-58
2022/03/09 09:47:29;;;;;;;9.00;3.50;;;;;;;;;;5046876;28;20053;-59
2022/03/09 09:49:58;;;;;;;6.50;2.88;;;;;;;;;;5040517;28;20059;-56
2022/03/09 09:52:25;;;;;;;10.57;4.20;;;;;;;;;;5046362;28;20057;-60
2022/03/09 09:54:54;;;;;;;6.90;2.85;;;;;;;;;;5040170;28;20164;-57
2022/03/09 09:57:21;;;;;;;10.30;3.85;;;;;;;;;;5030633;28;20052;-55
2022/03/09 09:59:51;;;;;;;10.77;4.25;;;;;;;;;;5041254;28;20049;-52
2022/03/09 10:02:18;;;;;;;11.63;4.43;;;;;;;;;;5046175;28;20059;-59
2022/03/09 10:04:46;;;;;;;12.50;4.75;;;;;;;;;;5040903;28;20073;-54
2022/03/09 10:07:13;;;;;;;;;;;;;;;;;;5046695;28;20152;-55
2022/03/09 10:09:41;;;;;;;10.23;3.45;;;;;;;;;;5040667;28;19929;-52
2022/03/09 10:12:08;;;;;;;10.23;4.28;;;;;;;;;;5045915;28;20057;-57
2022/03/09 10:14:47;;;;;;;10.80;4.35;;;;;;;;;;5041240;28;20052;-51
2022/03/09 10:17:15;;;;;;;11.15;3.47;;;;;;;;;;5043073;28;20058;-55
2022/03/09 10:19:42;;;;;;;14.43;4.32;;;;;;;;;;5043579;28;20114;-56
2022/03/09 10:22:41;;;;;;;13.07;4.23;;;;;;;;;;5044655;28;20052;-52
2022/03/09 10:25:19;;;;;;;7.25;3.22;;;;;;;;;;4983779;28;20141;-54
2022/03/09 10:27:47;;;;;;;10.05;3.55;;;;;;;;;;5042797;28;20059;-60
2022/03/09 10:30:14;;;;;;;11.52;4.45;;;;;;;;;;5047996;28;20049;-50
2022/03/09 10:32:44;;;;;;;9.68;3.30;;;;;;;;;;5035350;28;20044;-55
2022/03/09 10:35:18;;;;;;;11.23;3.95;;;;;;;;;;5065840;28;20053;-55
2022/03/09 10:37:46;;;;;;;9.25;3.40;;;;;;;;;;5048267;28;20053;-52
2022/03/09 10:40:13;;;;;;;13.27;4.10;;;;;;;;;;5050172;28;20049;-55
2022/03/09 10:42:44;;;;;;;10.13;4.20;;;;;;;;;;5042531;28;20060;-61
2022/03/09 10:45:14;;;;;;;12.07;4.35;;;;;;;;;;5050209;28;20140;-58
2022/03/09 10:47:43;;;;;;;12.23;4.88;;;;;;;;;;5044415;28;20048;-56
2022/03/09 10:50:20;;;;;;;13.60;5.07;;;;;;;;;;5049931;28;20059;-51
2022/03/09 10:52:49;;;;;;;13.95;5.55;;;;;;;;;;5044426;28;20052;-56
2022/03/09 10:55:23;;;;;;;12.98;4.65;;;;;;;;;;5049467;28;20111;-62
2022/03/09 10:57:52;;;;;;;11.50;4.60;;;;;;;;;;5042822;28;20052;-58
2022/03/09 11:00:33;;;;;;;12.60;5.03;;;;;;;;;;5049691;28;20179;-56
2022/03/09 11:03:04;;;;;;;17.15;6.10;;;;;;;;;;5043637;28;20106;-65
2022/03/09 11:05:31;;;;;;;19.33;5.28;;;;;;;;;;5049440;28;20121;-60
2022/03/09 11:07:58;;;;;;;15.60;4.70;;;;;;;;;;5043140;28;20052;-59
2022/03/09 11:10:26;;;;;;;13.60;4.97;;;;;;;;;;5049028;28;20052;-51
2022/03/09 11:12:54;;;;;;;13.83;4.67;;;;;;;;;;5043982;28;20055;-55
2022/03/09 11:15:21;;;;;;;18.73;5.83;;;;;;;;;;5049485;28;20121;-60
2022/03/09 11:17:49;;;;;;;8.75;3.80;;;;;;;;;;5043354;28;20048;-60
2022/03/09 11:20:16;;;;;;;11.70;4.50;;;;;;;;;;5049008;28;20068;-60
2022/03/09 11:22:43;;;;;;;15.95;4.82;;;;;;;;;;5044305;28;20146;-50
2022/03/09 11:25:10;;;;;;;18.40;6.85;;;;;;;;;;5049418;28;20052;-57
2022/03/09 11:27:42;;;;;;;14.90;5.82;;;;;;;;;;5043187;28;20057;-56
2022/03/09 11:30:23;;;;;;;15.43;5.88;;;;;;;;;;5029727;28;20053;-56
2022/03/09 11:32:51;;;;;;;15.88;6.05;;;;;;;;;;5027871;28;20056;-59
2022/03/09 11:35:34;;;;;;;14.10;5.47;;;;;;;;;;5048692;28;20053;-57
2022/03/09 11:38:03;;;;;;;24.52;6.15;;;;;;;;;;5040580;28;20053;-60
2022/03/09 11:40:30;;;;;;;23.08;7.63;;;;;;;;;;5048564;28;20048;-61
2022/03/09 11:43:17;;;;;;;21.60;8.07;;;;;;;;;;5044013;28;20080;-64
2022/03/09 11:45:50;;;;;;;20.67;7.55;;;;;;;;;;5048862;28;20052;-63
2022/03/09 11:48:18;;;;;;;19.67;7.55;;;;;;;;;;5043025;28;20061;-62
2022/03/09 11:51:03;;;;;;;20.60;7.40;;;;;;;;;;5029491;28;20053;-59
2022/03/09 11:53:40;;;;;;;22.38;6.47;;;;;;;;;;5024647;28;20053;-61
2022/03/09 11:56:27;;;;;;;20.95;7.60;;;;;;;;;;5048871;28;20059;-59
2022/03/09 11:59:09;;;;;;;23.00;7.05;;;;;;;;;;5043574;28;20280;-62
2022/03/09 12:01:51;;;;;;;17.67;7.32;;;;;;;;;;5051016;28;20049;-63
2022/03/09 12:04:32;;;;;;;19.23;6.68;;;;;;;;;;5044743;28;20041;-62
2022/03/09 12:07:02;;;;;;;19.02;5.90;;;;;;;;;;5047165;28;20164;-57
2022/03/09 12:09:43;;;;;;;15.85;6.47;;;;;;;;;;5040743;28;20053;-57
2022/03/09 12:12:10;;;;;;;17.85;6.90;;;;;;;;;;5047224;28;20167;-58
2022/03/09 12:14:55;;;;;;;17.40;6.05;;;;;;;;;;5040264;28;20114;-58
2022/03/09 12:17:27;;;;;;;13.07;5.78;;;;;;;;;;5036187;28;20049;-57
2022/03/09 12:20:09;;;;;;;21.08;7.30;;;;;;;;;;5041713;28;20053;-59
2022/03/09 12:22:50;;;;;;;14.60;6.00;;;;;;;;;;5038970;28;20045;-59
2022/03/09 12:25:31;;;;;;;23.00;7.57;;;;;;;;;;5041607;28;20068;-57
2022/03/09 12:28:22;;;;;;;17.73;7.28;;;;;;;;;;5047907;28;20084;-59
2022/03/09 12:30:55;;;;;;;18.70;7.07;;;;;;;;;;5033419;28;20045;-59
2022/03/09 12:33:24;;;;;;;23.08;7.72;;;;;;;;;;5038478;28;20053;-60
2022/03/09 12:35:50;;;;;;;27.33;9.98;;;;;;;;;;5045656;28;20040;-58
2022/03/09 12:38:17;;;;;;;18.77;7.30;;;;;;;;;;5039452;28;20128;-60
2022/03/09 12:40:45;;;;;;;22.50;8.48;;;;;;;;;;5041981;28;20080;-58
2022/03/09 12:43:14;;;;;;;19.75;7.80;;;;;;;;;;5047522;28;20064;-61
2022/03/09 12:45:50;;;;;;;18.65;7.97;;;;;;;;;;5040588;28;20135;-60
2022/03/09 12:48:20;;;;;;;25.13;8.30;;;;;;;;;;5038035;28;20135;-59
2022/03/09 12:50:47;;;;;;;24.05;8.95;;;;;;;;;;5040611;28;20124;-59
2022/03/09 12:53:18;;;;;;;12.90;5.10;;;;;;;;;;5046558;28;20152;-60
2022/03/09 12:55:45;;;;;;;24.35;8.20;;;;;;;;;;5047961;28;20048;-58
2022/03/09 12:58:11;;;;;;;27.00;9.23;;;;;;;;;;5034867;28;20124;-58
2022/03/09 13:00:39;;;;;;;25.42;8.82;;;;;;;;;;5047280;28;20143;-59
2022/03/09 13:03:10;;;;;;;26.00;9.30;;;;;;;;;;5042490;28;20057;-58
2022/03/09 13:05:38;;;;;;;21.08;8.43;;;;;;;;;;5045991;28;20148;-57
2022/03/09 13:08:06;;;;;;;21.02;7.57;;;;;;;;;;5041074;28;20059;-60
2022/03/09 13:10:39;;;;;;;20.10;8.73;;;;;;;;;;5047270;28;20071;-57
2022/03/09 13:13:05;;;;;;;21.13;9.10;;;;;;;;;;5041613;28;20118;-58
2022/03/09 13:15:36;;;;;;;20.27;8.82;;;;;;;;;;5046536;28;20084;-58
2022/03/09 13:18:07;;;;;;;24.85;8.95;;;;;;;;;;5041070;28;20072;-58
2022/03/09 13:20:33;;;;;;;20.20;8.35;;;;;;;;;;5046996;28;20061;-58
2022/03/09 13:23:00;;;;;;;22.83;8.93;;;;;;;;;;5040718;28;20262;-58
2022/03/09 13:25:30;;;;;;;27.75;9.02;;;;;;;;;;5046702;28;20061;-59
2022/03/09 13:28:00;;;;;;;20.13;8.00;;;;;;;;;;5034080;28;20053;-59
2022/03/09 13:30:28;;;;;;;14.35;5.70;;;;;;;;;;5027524;28;20164;-58
2022/03/09 13:32:54;;;;;;;25.13;8.90;;;;;;;;;;5027285;28;20139;-59
2022/03/09 13:35:24;;;;;;;23.48;8.68;;;;;;;;;;5047250;28;20077;-58
2022/03/09 13:38:00;;;;;;;25.92;9.52;;;;;;;;;;5041178;28;20048;-61
2022/03/09 13:40:26;;;;;;;20.48;8.55;;;;;;;;;;5048990;28;20049;-59
2022/03/09 13:42:54;;;;;;;23.85;9.30;;;;;;;;;;5042268;28;20067;-59
2022/03/09 13:45:27;;;;;;;27.58;9.43;;;;;;;;;;5027206;28;20054;-58
2022/03/09 13:47:55;;;;;;;23.35;9.00;;;;;;;;;;5023557;28;20088;-58
2022/03/09 13:50:24;;;;;;;21.38;9.43;;;;;;;;;;5044287;28;20055;-57
2022/03/09 13:52:51;;;;;;;21.05;8.93;;;;;;;;;;5028141;28;20051;-59
2022/03/09 13:55:21;;;;;;;26.63;9.60;;;;;;;;;;5058389;28;20087;-59
2022/03/09 13:57:58;;;;;;;22.95;9.63;;;;;;;;;;5048585;28;20053;-61
2022/03/09 14:00:27;;;;;;;19.08;8.38;;;;;;;;;;5042044;28;20057;-60
2022/03/09 14:02:54;;;;;;;24.98;10.02;;;;;;;;;;5047013;28;20169;-60
2022/03/09 14:05:28;;;;;;;24.38;9.50;;;;;;;;;;5040933;28;20178;-60
2022/03/09 14:07:55;;;;;;;23.38;9.88;;;;;;;;;;5044578;28;20049;-60
2022/03/09 14:10:24;;;;;;;22.38;8.73;;;;;;;;;;5040538;28;20084;-59
2022/03/09 14:12:52;;;;;;;22.00;8.93;;;;;;;;;;5046529;28;20140;-56
2022/03/09 14:15:20;;;;;;;26.58;9.45;;;;;;;;;;5040117;28;20045;-56
2022/03/09 14:17:48;;;;;;;25.13;9.45;;;;;;;;;;5046026;28;20124;-56
2022/03/09 14:20:15;;;;;;;25.00;9.68;;;;;;;;;;5041206;28;20045;-54
2022/03/09 14:22:44;;;;;;;28.42;10.73;;;;;;;;;;5046562;28;20269;-57
2022/03/09 14:25:12;;;;;;;22.15;8.80;;;;;;;;;;5040466;28;20060;-54
2022/03/09 14:27:38;;;;;;;24.10;10.10;;;;;;;;;;5046805;28;20118;-57
2022/03/09 14:30:06;;;;;;;22.38;9.15;;;;;;;;;;5040589;28;20057;-52
2022/03/09 14:32:33;;;;;;;19.23;9.30;;;;;;;;;;5046427;28;20061;-55
2022/03/09 14:35:00;;;;;;;18.50;8.00;;;;;;;;;;5040036;28;20052;-56
2022/03/09 14:37:27;;;;;;;23.00;9.40;;;;;;;;;;5045900;28;20076;-58
2022/03/09 14:39:55;;;;;;;32.70;10.85;;;;;;;;;;5041720;28;20073;-54
2022/03/09 14:42:21;;;;;;;27.58;9.50;;;;;;;;;;5026660;28;20057;-57
2022/03/09 14:44:48;;;;;;;24.90;9.30;;;;;;;;;;5043245;28;20139;-57
2022/03/09 14:47:14;;;;;;;24.10;10.13;;;;;;;;;;5054925;28;20162;-54